sensor_id;sensor_type;location;lat;lon;timestamp;pressure;altitude;pressure_sealevel;temperature;humidity
45991;BME280;31721;41.740;-88.000;2023-07-22T00:00:04;98820.72;;;26.43;31.50
45991;BME280;31721;41.740;-88.000;2023-07-22T00:02:33;98820.41;;;26.44;31.12
45991;BME280;31721;41.740;-88.000;2023-07-22T00:05:01;98816.27;;;26.35;30.85
45991;BME280;31721;41.740;-88.000;2023-07-22T00:07:28;98815.77;;;26.27;30.92
45991;BME280;31721;41.740;-88.000;2023-07-22T00:09:56;98820.88;;;26.32;31.46
45991;BME280;31721;41.740;-88.000;2023-07-22T00:12:24;98817.12;;;26.24;32.24
45991;BME280;31721;41.740;-88.000;2023-07-22T00:14:52;98816.26;;;26.23;32.67
45991;BME280;31721;41.740;-88.000;2023-07-22T00:17:20;98816.47;;;26.16;32.41
45991;BME280;31721;41.740;-88.000;2023-07-22T00:19:48;98816.27;;;26.08;32.03
45991;BME280;31721;41.740;-88.000;2023-07-22T00:22:16;98817.72;;;26.04;32.36
45991;BME280;31721;41.740;-88.000;2023-07-22T00:24:43;98818.41;;;25.98;32.20
45991;BME280;31721;41.740;-88.000;2023-07-22T00:27:11;98817.88;;;25.93;31.64
45991;BME280;31721;41.740;-88.000;2023-07-22T00:29:38;98819.09;;;25.92;31.42
45991;BME280;31721;41.740;-88.000;2023-07-22T00:32:08;98818.27;;;25.86;31.77
45991;BME280;31721;41.740;-88.000;2023-07-22T00:34:36;98819.29;;;25.81;31.89
45991;BME280;31721;41.740;-88.000;2023-07-22T00:37:04;98816.73;;;25.66;32.17
45991;BME280;31721;41.740;-88.000;2023-07-22T00:39:31;98815.89;;;25.62;32.63
45991;BME280;31721;41.740;-88.000;2023-07-22T00:41:59;98816.76;;;25.64;32.28
45991;BME280;31721;41.740;-88.000;2023-07-22T00:44:27;98814.92;;;25.55;32.69
45991;BME280;31721;41.740;-88.000;2023-07-22T00:46:55;98819.43;;;25.49;32.82
45991;BME280;31721;41.740;-88.000;2023-07-22T00:49:24;98824.31;;;25.38;32.96
45991;BME280;31721;41.740;-88.000;2023-07-22T00:51:53;98826.67;;;25.35;33.08
45991;BME280;31721;41.740;-88.000;2023-07-22T00:54:20;98826.17;;;25.26;33.38
45991;BME280;31721;41.740;-88.000;2023-07-22T00:56:48;98825.09;;;25.09;33.50
45991;BME280;31721;41.740;-88.000;2023-07-22T00:59:16;98823.95;;;25.09;33.47
45991;BME280;31721;41.740;-88.000;2023-07-22T01:01:44;98823.67;;;25.01;33.83
45991;BME280;31721;41.740;-88.000;2023-07-22T01:04:14;98825.91;;;24.94;33.83
45991;BME280;31721;41.740;-88.000;2023-07-22T01:06:44;98827.25;;;24.90;33.92
45991;BME280;31721;41.740;-88.000;2023-07-22T01:09:11;98831.59;;;24.75;34.22
45991;BME280;31721;41.740;-88.000;2023-07-22T01:11:39;98828.73;;;24.74;34.36
45991;BME280;31721;41.740;-88.000;2023-07-22T01:14:07;98830.13;;;24.73;34.34
45991;BME280;31721;41.740;-88.000;2023-07-22T01:16:35;98827.41;;;24.50;34.62
45991;BME280;31721;41.740;-88.000;2023-07-22T01:19:05;98826.69;;;24.48;34.82
45991;BME280;31721;41.740;-88.000;2023-07-22T01:21:33;98826.18;;;24.41;34.74
45991;BME280;31721;41.740;-88.000;2023-07-22T01:24:01;98823.22;;;24.30;35.07
45991;BME280;31721;41.740;-88.000;2023-07-22T01:26:29;98822.49;;;24.05;35.42
45991;BME280;31721;41.740;-88.000;2023-07-22T01:29:03;98818.69;;;24.12;35.75
45991;BME280;31721;41.740;-88.000;2023-07-22T01:31:33;98821.53;;;24.01;35.71
45991;BME280;31721;41.740;-88.000;2023-07-22T01:34:01;98821.17;;;23.92;35.74
45991;BME280;31721;41.740;-88.000;2023-07-22T01:36:29;98822.98;;;23.84;36.09
45991;BME280;31721;41.740;-88.000;2023-07-22T01:38:56;98826.65;;;23.81;35.99
45991;BME280;31721;41.740;-88.000;2023-07-22T01:41:25;98825.71;;;23.68;36.36
45991;BME280;31721;41.740;-88.000;2023-07-22T01:43:52;98822.90;;;23.60;36.39
45991;BME280;31721;41.740;-88.000;2023-07-22T01:46:20;98823.78;;;23.52;36.67
45991;BME280;31721;41.740;-88.000;2023-07-22T01:48:48;98823.22;;;23.60;36.88
45991;BME280;31721;41.740;-88.000;2023-07-22T01:51:16;98823.12;;;23.46;37.00
45991;BME280;31721;41.740;-88.000;2023-07-22T01:53:45;98824.45;;;23.39;37.24
45991;BME280;31721;41.740;-88.000;2023-07-22T01:56:12;98829.93;;;23.37;37.20
45991;BME280;31721;41.740;-88.000;2023-07-22T01:58:40;98833.95;;;23.30;37.37
45991;BME280;31721;41.740;-88.000;2023-07-22T02:01:08;98834.95;;;23.22;37.42
45991;BME280;31721;41.740;-88.000;2023-07-22T02:03:36;98839.79;;;23.14;37.45
45991;BME280;31721;41.740;-88.000;2023-07-22T02:06:04;98838.90;;;23.07;37.57
45991;BME280;31721;41.740;-88.000;2023-07-22T02:08:33;98841.66;;;23.01;37.86
45991;BME280;31721;41.740;-88.000;2023-07-22T02:11:02;98846.50;;;23.00;37.81
45991;BME280;31721;41.740;-88.000;2023-07-22T02:13:30;98846.72;;;22.81;37.76
45991;BME280;31721;41.740;-88.000;2023-07-22T02:15:59;98846.86;;;22.72;38.25
45991;BME280;31721;41.740;-88.000;2023-07-22T02:18:28;98851.55;;;22.72;38.30
45991;BME280;31721;41.740;-88.000;2023-07-22T02:20:57;98854.45;;;22.65;38.60
45991;BME280;31721;41.740;-88.000;2023-07-22T02:23:25;98853.02;;;22.59;38.71
45991;BME280;31721;41.740;-88.000;2023-07-22T02:25:53;98855.07;;;22.54;38.78
45991;BME280;31721;41.740;-88.000;2023-07-22T02:28:22;98851.87;;;22.51;39.18
45991;BME280;31721;41.740;-88.000;2023-07-22T02:30:50;98855.90;;;22.45;39.31
45991;BME280;31721;41.740;-88.000;2023-07-22T02:33:18;98857.30;;;22.39;39.66
45991;BME280;31721;41.740;-88.000;2023-07-22T02:35:48;98859.54;;;22.35;39.44
45991;BME280;31721;41.740;-88.000;2023-07-22T02:38:16;98857.57;;;22.31;39.60
45991;BME280;31721;41.740;-88.000;2023-07-22T02:40:44;98853.02;;;22.22;39.63
45991;BME280;31721;41.740;-88.000;2023-07-22T02:43:11;98858.85;;;22.18;39.91
45991;BME280;31721;41.740;-88.000;2023-07-22T02:45:39;98858.74;;;22.11;39.78
45991;BME280;31721;41.740;-88.000;2023-07-22T02:48:07;98858.12;;;22.04;39.91
45991;BME280;31721;41.740;-88.000;2023-07-22T02:50:34;98862.05;;;21.99;40.31
45991;BME280;31721;41.740;-88.000;2023-07-22T02:53:02;98864.79;;;22.01;40.31
45991;BME280;31721;41.740;-88.000;2023-07-22T02:55:30;98863.53;;;21.88;40.29
45991;BME280;31721;41.740;-88.000;2023-07-22T02:57:58;98863.13;;;21.83;40.44
45991;BME280;31721;41.740;-88.000;2023-07-22T03:00:26;98859.11;;;21.75;40.64
45991;BME280;31721;41.740;-88.000;2023-07-22T03:02:55;98861.63;;;21.69;40.88
45991;BME280;31721;41.740;-88.000;2023-07-22T03:05:23;98858.46;;;21.62;40.82
45991;BME280;31721;41.740;-88.000;2023-07-22T03:07:51;98857.30;;;21.58;41.01
45991;BME280;31721;41.740;-88.000;2023-07-22T03:10:19;98855.98;;;21.54;41.32
45991;BME280;31721;41.740;-88.000;2023-07-22T03:12:48;98856.54;;;21.48;41.56
45991;BME280;31721;41.740;-88.000;2023-07-22T03:15:16;98858.88;;;21.53;41.65
45991;BME280;31721;41.740;-88.000;2023-07-22T03:17:44;98861.09;;;21.40;41.68
45991;BME280;31721;41.740;-88.000;2023-07-22T03:20:12;98862.76;;;21.32;41.55
45991;BME280;31721;41.740;-88.000;2023-07-22T03:22:40;98866.03;;;21.42;41.81
45991;BME280;31721;41.740;-88.000;2023-07-22T03:25:08;98868.65;;;21.30;42.01
45991;BME280;31721;41.740;-88.000;2023-07-22T03:27:37;98870.59;;;21.35;42.15
45991;BME280;31721;41.740;-88.000;2023-07-22T03:30:07;98873.08;;;21.33;42.42
45991;BME280;31721;41.740;-88.000;2023-07-22T03:32:35;98872.94;;;21.31;42.58
45991;BME280;31721;41.740;-88.000;2023-07-22T03:35:03;98871.74;;;21.25;42.50
45991;BME280;31721;41.740;-88.000;2023-07-22T03:37:31;98865.25;;;21.11;42.76
45991;BME280;31721;41.740;-88.000;2023-07-22T03:39:58;98865.84;;;21.14;42.97
45991;BME280;31721;41.740;-88.000;2023-07-22T03:42:26;98866.97;;;21.08;43.08
45991;BME280;31721;41.740;-88.000;2023-07-22T03:44:54;98868.77;;;21.02;43.31
45991;BME280;31721;41.740;-88.000;2023-07-22T03:47:22;98871.51;;;20.89;43.37
45991;BME280;31721;41.740;-88.000;2023-07-22T03:49:49;98873.14;;;20.99;43.64
45991;BME280;31721;41.740;-88.000;2023-07-22T03:52:17;98873.36;;;20.88;44.04
45991;BME280;31721;41.740;-88.000;2023-07-22T03:54:45;98876.78;;;20.95;44.04
45991;BME280;31721;41.740;-88.000;2023-07-22T03:57:13;98878.72;;;20.84;44.07
45991;BME280;31721;41.740;-88.000;2023-07-22T03:59:40;98883.92;;;20.79;44.37
45991;BME280;31721;41.740;-88.000;2023-07-22T04:02:08;98885.62;;;20.77;44.61
45991;BME280;31721;41.740;-88.000;2023-07-22T04:04:35;98885.65;;;20.76;45.06
45991;BME280;31721;41.740;-88.000;2023-07-22T04:07:03;98886.24;;;20.78;45.13
45991;BME280;31721;41.740;-88.000;2023-07-22T04:09:31;98887.54;;;20.85;45.40
45991;BME280;31721;41.740;-88.000;2023-07-22T04:11:59;98889.36;;;20.67;45.49
45991;BME280;31721;41.740;-88.000;2023-07-22T04:14:27;98889.75;;;20.65;45.87
45991;BME280;31721;41.740;-88.000;2023-07-22T04:16:54;98889.63;;;20.76;45.97
45991;BME280;31721;41.740;-88.000;2023-07-22T04:19:22;98889.26;;;20.66;46.06
45991;BME280;31721;41.740;-88.000;2023-07-22T04:21:50;98889.78;;;20.64;46.36
45991;BME280;31721;41.740;-88.000;2023-07-22T04:24:17;98887.51;;;20.62;46.45
45991;BME280;31721;41.740;-88.000;2023-07-22T04:26:45;98884.78;;;20.53;46.66
45991;BME280;31721;41.740;-88.000;2023-07-22T04:29:13;98879.58;;;20.51;46.88
45991;BME280;31721;41.740;-88.000;2023-07-22T04:31:41;98884.87;;;20.48;47.13
45991;BME280;31721;41.740;-88.000;2023-07-22T04:34:08;98884.22;;;20.39;47.25
45991;BME280;31721;41.740;-88.000;2023-07-22T04:36:36;98884.14;;;20.41;47.43
45991;BME280;31721;41.740;-88.000;2023-07-22T04:39:04;98882.56;;;20.37;47.51
45991;BME280;31721;41.740;-88.000;2023-07-22T04:41:31;98884.42;;;20.33;47.63
45991;BME280;31721;41.740;-88.000;2023-07-22T04:43:59;98888.97;;;20.31;47.86
45991;BME280;31721;41.740;-88.000;2023-07-22T04:46:27;98891.82;;;20.29;47.64
45991;BME280;31721;41.740;-88.000;2023-07-22T04:48:56;98891.80;;;20.22;47.45
45991;BME280;31721;41.740;-88.000;2023-07-22T04:51:24;98895.81;;;20.25;47.42
45991;BME280;31721;41.740;-88.000;2023-07-22T04:53:52;98896.58;;;20.11;47.58
45991;BME280;31721;41.740;-88.000;2023-07-22T04:56:19;98897.71;;;20.00;47.56
45991;BME280;31721;41.740;-88.000;2023-07-22T04:58:47;98897.35;;;20.12;47.62
45991;BME280;31721;41.740;-88.000;2023-07-22T05:01:15;98897.82;;;19.98;47.52
45991;BME280;31721;41.740;-88.000;2023-07-22T05:03:43;98897.96;;;20.01;47.44
45991;BME280;31721;41.740;-88.000;2023-07-22T05:06:11;98895.86;;;19.89;47.28
45991;BME280;31721;41.740;-88.000;2023-07-22T05:08:39;98891.89;;;19.87;47.35
45991;BME280;31721;41.740;-88.000;2023-07-22T05:11:07;98889.87;;;19.90;47.10
45991;BME280;31721;41.740;-88.000;2023-07-22T05:13:35;98888.87;;;19.78;47.31
45991;BME280;31721;41.740;-88.000;2023-07-22T05:16:02;98887.85;;;19.76;47.64
45991;BME280;31721;41.740;-88.000;2023-07-22T05:18:30;98887.13;;;19.82;47.74
45991;BME280;31721;41.740;-88.000;2023-07-22T05:20:58;98886.57;;;19.79;48.19
45991;BME280;31721;41.740;-88.000;2023-07-22T05:23:25;98886.38;;;19.68;48.04
45991;BME280;31721;41.740;-88.000;2023-07-22T05:25:54;98884.91;;;19.73;48.09
45991;BME280;31721;41.740;-88.000;2023-07-22T05:28:22;98882.81;;;19.70;48.13
45991;BME280;31721;41.740;-88.000;2023-07-22T05:30:50;98875.84;;;19.67;48.20
45991;BME280;31721;41.740;-88.000;2023-07-22T05:33:17;98873.67;;;19.64;48.36
45991;BME280;31721;41.740;-88.000;2023-07-22T05:35:46;98874.89;;;19.60;48.22
45991;BME280;31721;41.740;-88.000;2023-07-22T05:38:13;98873.40;;;19.56;48.29
45991;BME280;31721;41.740;-88.000;2023-07-22T05:40:41;98869.18;;;19.52;48.22
45991;BME280;31721;41.740;-88.000;2023-07-22T05:43:10;98866.22;;;19.49;48.26
45991;BME280;31721;41.740;-88.000;2023-07-22T05:45:38;98864.43;;;19.49;48.51
45991;BME280;31721;41.740;-88.000;2023-07-22T05:48:06;98863.40;;;19.45;48.29
45991;BME280;31721;41.740;-88.000;2023-07-22T05:50:33;98862.52;;;19.44;48.47
45991;BME280;31721;41.740;-88.000;2023-07-22T05:53:01;98862.30;;;19.33;48.59
45991;BME280;31721;41.740;-88.000;2023-07-22T05:55:29;98860.90;;;19.41;48.71
45991;BME280;31721;41.740;-88.000;2023-07-22T05:57:57;98859.87;;;19.41;48.75
45991;BME280;31721;41.740;-88.000;2023-07-22T06:00:24;98859.65;;;19.39;48.90
45991;BME280;31721;41.740;-88.000;2023-07-22T06:02:52;98859.55;;;19.29;49.31
45991;BME280;31721;41.740;-88.000;2023-07-22T06:05:19;98861.93;;;19.29;49.17
45991;BME280;31721;41.740;-88.000;2023-07-22T06:07:47;98864.31;;;19.21;49.07
45991;BME280;31721;41.740;-88.000;2023-07-22T06:10:15;98864.91;;;19.19;49.44
45991;BME280;31721;41.740;-88.000;2023-07-22T06:12:42;98863.17;;;19.25;49.59
45991;BME280;31721;41.740;-88.000;2023-07-22T06:15:10;98864.16;;;19.09;49.64
45991;BME280;31721;41.740;-88.000;2023-07-22T06:17:38;98862.68;;;19.07;49.77
45991;BME280;31721;41.740;-88.000;2023-07-22T06:20:07;98860.26;;;19.11;49.74
45991;BME280;31721;41.740;-88.000;2023-07-22T06:22:35;98854.58;;;19.08;49.81
45991;BME280;31721;41.740;-88.000;2023-07-22T06:25:03;98847.08;;;19.09;49.87
45991;BME280;31721;41.740;-88.000;2023-07-22T06:27:31;98841.58;;;19.01;49.80
45991;BME280;31721;41.740;-88.000;2023-07-22T06:29:59;98844.74;;;19.03;49.86
45991;BME280;31721;41.740;-88.000;2023-07-22T06:32:27;98839.38;;;19.15;49.78
45991;BME280;31721;41.740;-88.000;2023-07-22T06:34:55;98840.33;;;19.15;49.56
45991;BME280;31721;41.740;-88.000;2023-07-22T06:37:23;98837.02;;;19.18;49.61
45991;BME280;31721;41.740;-88.000;2023-07-22T06:39:51;98835.69;;;19.19;49.64
45991;BME280;31721;41.740;-88.000;2023-07-22T06:42:19;98835.28;;;19.21;49.74
45991;BME280;31721;41.740;-88.000;2023-07-22T06:44:47;98832.99;;;19.22;49.56
45991;BME280;31721;41.740;-88.000;2023-07-22T06:47:14;98832.57;;;19.23;49.74
45991;BME280;31721;41.740;-88.000;2023-07-22T06:49:42;98830.46;;;19.15;49.71
45991;BME280;31721;41.740;-88.000;2023-07-22T06:52:10;98829.15;;;19.22;49.89
45991;BME280;31721;41.740;-88.000;2023-07-22T06:54:38;98828.59;;;19.23;49.97
45991;BME280;31721;41.740;-88.000;2023-07-22T06:57:06;98824.88;;;19.24;50.05
45991;BME280;31721;41.740;-88.000;2023-07-22T06:59:35;98825.09;;;19.22;50.03
45991;BME280;31721;41.740;-88.000;2023-07-22T07:02:04;98824.93;;;19.21;50.11
45991;BME280;31721;41.740;-88.000;2023-07-22T07:04:32;98827.13;;;19.19;50.14
45991;BME280;31721;41.740;-88.000;2023-07-22T07:07:00;98825.61;;;19.25;50.12
45991;BME280;31721;41.740;-88.000;2023-07-22T07:09:27;98825.35;;;19.16;50.21
45991;BME280;31721;41.740;-88.000;2023-07-22T07:11:55;98822.75;;;19.17;50.46
45991;BME280;31721;41.740;-88.000;2023-07-22T07:14:23;98821.81;;;19.17;50.58
45991;BME280;31721;41.740;-88.000;2023-07-22T07:16:51;98823.28;;;19.18;50.57
45991;BME280;31721;41.740;-88.000;2023-07-22T07:19:19;98821.57;;;19.17;50.50
45991;BME280;31721;41.740;-88.000;2023-07-22T07:21:46;98821.27;;;19.16;50.65
45991;BME280;31721;41.740;-88.000;2023-07-22T07:24:14;98823.30;;;19.24;50.55
45991;BME280;31721;41.740;-88.000;2023-07-22T07:26:41;98823.62;;;19.17;50.56
45991;BME280;31721;41.740;-88.000;2023-07-22T07:29:09;98820.04;;;19.16;50.61
45991;BME280;31721;41.740;-88.000;2023-07-22T07:31:37;98817.79;;;19.14;50.97
45991;BME280;31721;41.740;-88.000;2023-07-22T07:34:05;98817.21;;;19.13;50.87
45991;BME280;31721;41.740;-88.000;2023-07-22T07:36:33;98815.56;;;19.12;50.89
45991;BME280;31721;41.740;-88.000;2023-07-22T07:39:01;98812.82;;;19.12;50.88
45991;BME280;31721;41.740;-88.000;2023-07-22T07:41:29;98812.83;;;19.11;50.84
45991;BME280;31721;41.740;-88.000;2023-07-22T07:43:56;98811.98;;;19.01;50.81
45991;BME280;31721;41.740;-88.000;2023-07-22T07:46:26;98811.42;;;19.23;50.94
45991;BME280;31721;41.740;-88.000;2023-07-22T07:48:55;98810.66;;;19.14;51.00
45991;BME280;31721;41.740;-88.000;2023-07-22T07:51:25;98807.09;;;19.07;51.14
45991;BME280;31721;41.740;-88.000;2023-07-22T07:53:54;98807.63;;;19.05;51.16
45991;BME280;31721;41.740;-88.000;2023-07-22T07:56:22;98807.58;;;19.02;51.19
45991;BME280;31721;41.740;-88.000;2023-07-22T07:58:51;98803.79;;;19.00;51.22
45991;BME280;31721;41.740;-88.000;2023-07-22T08:01:20;98803.42;;;18.99;51.42
45991;BME280;31721;41.740;-88.000;2023-07-22T08:03:47;98801.16;;;18.98;51.69
45991;BME280;31721;41.740;-88.000;2023-07-22T08:06:16;98797.42;;;19.03;51.74
45991;BME280;31721;41.740;-88.000;2023-07-22T08:08:44;98796.72;;;18.95;51.84
45991;BME280;31721;41.740;-88.000;2023-07-22T08:11:12;98797.61;;;18.92;52.01
45991;BME280;31721;41.740;-88.000;2023-07-22T08:13:41;98792.05;;;18.98;52.18
45991;BME280;31721;41.740;-88.000;2023-07-22T08:16:11;98792.31;;;18.97;52.04
45991;BME280;31721;41.740;-88.000;2023-07-22T08:18:40;98787.35;;;18.87;52.22
45991;BME280;31721;41.740;-88.000;2023-07-22T08:21:07;98785.25;;;18.84;52.40
45991;BME280;31721;41.740;-88.000;2023-07-22T08:23:36;98784.15;;;18.89;52.45
45991;BME280;31721;41.740;-88.000;2023-07-22T08:26:04;98785.18;;;18.80;52.48
45991;BME280;31721;41.740;-88.000;2023-07-22T08:28:34;98786.47;;;18.84;52.72
45991;BME280;31721;41.740;-88.000;2023-07-22T08:31:02;98785.55;;;18.76;52.86
45991;BME280;31721;41.740;-88.000;2023-07-22T08:33:30;98782.47;;;18.72;53.03
45991;BME280;31721;41.740;-88.000;2023-07-22T08:35:57;98784.79;;;18.89;53.29
45991;BME280;31721;41.740;-88.000;2023-07-22T08:38:26;98784.12;;;18.80;53.23
45991;BME280;31721;41.740;-88.000;2023-07-22T08:40:53;98787.48;;;18.78;53.25
45991;BME280;31721;41.740;-88.000;2023-07-22T08:43:22;98789.62;;;18.82;53.35
45991;BME280;31721;41.740;-88.000;2023-07-22T08:45:52;98790.27;;;18.81;53.41
45991;BME280;31721;41.740;-88.000;2023-07-22T08:48:22;98792.47;;;18.73;53.51
45991;BME280;31721;41.740;-88.000;2023-07-22T08:50:54;98795.53;;;18.80;53.58
45991;BME280;31721;41.740;-88.000;2023-07-22T08:53:23;98796.97;;;18.79;53.48
45991;BME280;31721;41.740;-88.000;2023-07-22T08:55:51;98797.19;;;18.77;53.58
45991;BME280;31721;41.740;-88.000;2023-07-22T08:58:20;98794.01;;;18.75;53.71
45991;BME280;31721;41.740;-88.000;2023-07-22T09:00:48;98795.96;;;18.74;53.80
45991;BME280;31721;41.740;-88.000;2023-07-22T09:03:16;98798.35;;;18.72;53.89
45991;BME280;31721;41.740;-88.000;2023-07-22T09:05:45;98796.28;;;18.70;53.97
45991;BME280;31721;41.740;-88.000;2023-07-22T09:08:13;98794.46;;;18.69;54.03
45991;BME280;31721;41.740;-88.000;2023-07-22T09:10:42;98795.69;;;18.66;54.13
45991;BME280;31721;41.740;-88.000;2023-07-22T09:13:11;98796.67;;;18.66;54.17
45991;BME280;31721;41.740;-88.000;2023-07-22T09:15:40;98798.03;;;18.63;54.09
45991;BME280;31721;41.740;-88.000;2023-07-22T09:18:08;98799.93;;;18.63;54.08
45991;BME280;31721;41.740;-88.000;2023-07-22T09:20:36;98798.59;;;18.55;54.14
45991;BME280;31721;41.740;-88.000;2023-07-22T09:23:05;98799.45;;;18.60;54.06
45991;BME280;31721;41.740;-88.000;2023-07-22T09:25:33;98798.04;;;18.43;54.26
45991;BME280;31721;41.740;-88.000;2023-07-22T09:28:01;98802.87;;;18.47;54.58
45991;BME280;31721;41.740;-88.000;2023-07-22T09:30:29;98802.42;;;18.48;54.47
45991;BME280;31721;41.740;-88.000;2023-07-22T09:32:58;98805.31;;;18.55;54.58
45991;BME280;31721;41.740;-88.000;2023-07-22T09:35:28;98804.44;;;18.53;54.42
45991;BME280;31721;41.740;-88.000;2023-07-22T09:37:58;98804.10;;;18.53;54.43
45991;BME280;31721;41.740;-88.000;2023-07-22T09:40:26;98800.72;;;18.51;54.52
45991;BME280;31721;41.740;-88.000;2023-07-22T09:42:56;98799.17;;;18.52;54.60
45991;BME280;31721;41.740;-88.000;2023-07-22T09:45:25;98798.16;;;18.52;54.53
45991;BME280;31721;41.740;-88.000;2023-07-22T09:47:54;98802.21;;;18.46;54.49
45991;BME280;31721;41.740;-88.000;2023-07-22T09:50:23;98805.94;;;18.54;54.59
45991;BME280;31721;41.740;-88.000;2023-07-22T09:52:52;98807.50;;;18.45;54.58
45991;BME280;31721;41.740;-88.000;2023-07-22T09:55:21;98808.33;;;18.54;54.73
45991;BME280;31721;41.740;-88.000;2023-07-22T09:57:52;98807.63;;;18.47;54.66
45991;BME280;31721;41.740;-88.000;2023-07-22T10:00:21;98812.62;;;18.36;54.78
45991;BME280;31721;41.740;-88.000;2023-07-22T10:02:52;98816.48;;;18.49;54.82
45991;BME280;31721;41.740;-88.000;2023-07-22T10:05:20;98819.66;;;18.48;54.90
45991;BME280;31721;41.740;-88.000;2023-07-22T10:07:49;98815.56;;;18.47;54.98
45991;BME280;31721;41.740;-88.000;2023-07-22T10:10:19;98815.95;;;18.47;55.13
45991;BME280;31721;41.740;-88.000;2023-07-22T10:12:46;98818.12;;;18.40;55.10
45991;BME280;31721;41.740;-88.000;2023-07-22T10:15:16;98819.01;;;18.46;55.17
45991;BME280;31721;41.740;-88.000;2023-07-22T10:17:44;98818.72;;;18.38;55.17
45991;BME280;31721;41.740;-88.000;2023-07-22T10:20:13;98818.04;;;18.45;55.09
45991;BME280;31721;41.740;-88.000;2023-07-22T10:22:41;98818.81;;;18.45;55.38
45991;BME280;31721;41.740;-88.000;2023-07-22T10:25:11;98821.04;;;18.37;55.28
45991;BME280;31721;41.740;-88.000;2023-07-22T10:27:40;98822.71;;;18.36;55.37
45991;BME280;31721;41.740;-88.000;2023-07-22T10:30:10;98822.81;;;18.42;55.38
45991;BME280;31721;41.740;-88.000;2023-07-22T10:32:39;98825.19;;;18.40;55.48
45991;BME280;31721;41.740;-88.000;2023-07-22T10:35:10;98827.64;;;18.32;55.47
45991;BME280;31721;41.740;-88.000;2023-07-22T10:37:39;98829.85;;;18.34;55.54
45991;BME280;31721;41.740;-88.000;2023-07-22T10:40:27;98833.93;;;18.32;55.54
45991;BME280;31721;41.740;-88.000;2023-07-22T10:42:58;98833.32;;;18.29;55.65
45991;BME280;31721;41.740;-88.000;2023-07-22T10:45:27;98833.80;;;18.29;55.80
45991;BME280;31721;41.740;-88.000;2023-07-22T10:48:07;98832.32;;;18.36;55.73
45991;BME280;31721;41.740;-88.000;2023-07-22T10:50:43;98829.55;;;18.23;55.81
45991;BME280;31721;41.740;-88.000;2023-07-22T10:53:13;98835.88;;;18.37;55.83
45991;BME280;31721;41.740;-88.000;2023-07-22T10:56:15;98837.70;;;18.31;55.87
45991;BME280;31721;41.740;-88.000;2023-07-22T10:59:00;98842.70;;;18.35;55.89
45991;BME280;31721;41.740;-88.000;2023-07-22T11:01:33;98845.53;;;18.34;55.89
45991;BME280;31721;41.740;-88.000;2023-07-22T11:04:11;98848.45;;;18.26;55.93
45991;BME280;31721;41.740;-88.000;2023-07-22T11:06:52;98848.68;;;18.31;56.08
45991;BME280;31721;41.740;-88.000;2023-07-22T11:09:38;98849.91;;;18.30;56.20
45991;BME280;31721;41.740;-88.000;2023-07-22T11:12:07;98848.08;;;18.25;56.19
45991;BME280;31721;41.740;-88.000;2023-07-22T11:14:38;98850.36;;;18.31;56.25
45991;BME280;31721;41.740;-88.000;2023-07-22T11:17:07;98850.04;;;18.31;56.33
45991;BME280;31721;41.740;-88.000;2023-07-22T11:19:36;98850.96;;;18.34;56.32
45991;BME280;31721;41.740;-88.000;2023-07-22T11:22:05;98850.58;;;18.33;56.24
45991;BME280;31721;41.740;-88.000;2023-07-22T11:24:34;98851.17;;;18.30;56.25
45991;BME280;31721;41.740;-88.000;2023-07-22T11:27:04;98852.25;;;18.37;56.25
45991;BME280;31721;41.740;-88.000;2023-07-22T11:29:32;98853.01;;;18.27;56.34
45991;BME280;31721;41.740;-88.000;2023-07-22T11:31:59;98853.80;;;18.33;56.45
45991;BME280;31721;41.740;-88.000;2023-07-22T11:34:27;98858.39;;;18.36;56.44
45991;BME280;31721;41.740;-88.000;2023-07-22T11:36:56;98858.48;;;18.43;56.55
45991;BME280;31721;41.740;-88.000;2023-07-22T11:39:25;98861.17;;;18.33;56.61
45991;BME280;31721;41.740;-88.000;2023-07-22T11:41:53;98860.88;;;18.36;56.45
45991;BME280;31721;41.740;-88.000;2023-07-22T11:44:23;98860.21;;;18.39;56.58
45991;BME280;31721;41.740;-88.000;2023-07-22T11:46:56;98857.12;;;18.44;56.56
45991;BME280;31721;41.740;-88.000;2023-07-22T11:49:26;98860.55;;;18.50;56.62
45991;BME280;31721;41.740;-88.000;2023-07-22T11:51:56;98857.71;;;18.47;56.41
45991;BME280;31721;41.740;-88.000;2023-07-22T11:54:24;98854.73;;;18.64;56.47
45991;BME280;31721;41.740;-88.000;2023-07-22T11:56:53;98855.74;;;18.85;56.38
45991;BME280;31721;41.740;-88.000;2023-07-22T11:59:34;98855.98;;;18.80;56.40
45991;BME280;31721;41.740;-88.000;2023-07-22T12:02:02;98853.33;;;18.87;56.28
45991;BME280;31721;41.740;-88.000;2023-07-22T12:04:30;98853.62;;;18.95;56.27
45991;BME280;31721;41.740;-88.000;2023-07-22T12:06:58;98853.47;;;19.02;56.00
45991;BME280;31721;41.740;-88.000;2023-07-22T12:09:26;98853.58;;;19.02;56.01
45991;BME280;31721;41.740;-88.000;2023-07-22T12:11:57;98854.69;;;19.05;56.20
45991;BME280;31721;41.740;-88.000;2023-07-22T12:14:33;98852.91;;;19.20;55.98
45991;BME280;31721;41.740;-88.000;2023-07-22T12:17:01;98852.51;;;19.31;56.10
45991;BME280;31721;41.740;-88.000;2023-07-22T12:19:29;98847.67;;;19.39;55.92
45991;BME280;31721;41.740;-88.000;2023-07-22T12:21:57;98850.87;;;19.44;56.06
45991;BME280;31721;41.740;-88.000;2023-07-22T12:24:25;98848.75;;;19.53;55.99
45991;BME280;31721;41.740;-88.000;2023-07-22T12:26:54;98853.15;;;19.64;56.02
45991;BME280;31721;41.740;-88.000;2023-07-22T12:29:21;98855.34;;;19.78;56.21
45991;BME280;31721;41.740;-88.000;2023-07-22T12:31:49;98854.75;;;20.08;55.05
45991;BME280;31721;41.740;-88.000;2023-07-22T12:34:17;98857.16;;;20.10;54.58
45991;BME280;31721;41.740;-88.000;2023-07-22T12:36:44;98857.57;;;20.25;54.71
45991;BME280;31721;41.740;-88.000;2023-07-22T12:39:12;98858.52;;;20.30;54.48
45991;BME280;31721;41.740;-88.000;2023-07-22T12:41:40;98857.98;;;20.44;54.30
45991;BME280;31721;41.740;-88.000;2023-07-22T12:44:08;98857.80;;;20.55;54.05
45991;BME280;31721;41.740;-88.000;2023-07-22T12:46:35;98857.19;;;20.77;53.66